createdAt,value
2022-12-25T00:01:46.510Z,157.83
2022-12-25T00:04:14.435Z,157.90
2022-12-25T00:06:42.404Z,157.67
2022-12-25T00:09:10.280Z,158.23
2022-12-25T00:11:38.140Z,157.40
2022-12-25T00:14:06.052Z,157.90
2022-12-25T00:16:34.063Z,158.23
2022-12-25T00:19:03.240Z,158.53
2022-12-25T00:21:31.795Z,158.73
2022-12-25T00:24:00.296Z,158.07
2022-12-25T00:26:28.975Z,158.03
2022-12-25T00:28:58.562Z,157.67
2022-12-25T00:31:26.987Z,157.33
2022-12-25T00:33:54.913Z,158.07
2022-12-25T00:36:24.574Z,158.07
2022-12-25T00:38:52.419Z,158.20
2022-12-25T00:41:43.095Z,158.30
2022-12-25T00:44:13.484Z,157.53
2022-12-25T00:46:41.813Z,158.53
2022-12-25T00:49:10.143Z,158.03
2022-12-25T00:51:39.338Z,158.67
2022-12-25T00:54:07.175Z,158.40
2022-12-25T00:56:35.176Z,159.07
2022-12-25T00:59:03.031Z,158.73
2022-12-25T01:01:30.995Z,158.13
2022-12-25T01:03:59.602Z,158.53
2022-12-25T01:06:27.573Z,158.10
2022-12-25T01:09:14.450Z,159.07
2022-12-25T01:11:42.527Z,158.23
2022-12-25T01:14:10.653Z,157.87
2022-12-25T01:16:38.843Z,158.63
2022-12-25T01:19:06.724Z,159.13
2022-12-25T01:21:34.543Z,158.73
2022-12-25T01:24:03.755Z,159.23
2022-12-25T01:26:31.708Z,158.77
2022-12-25T01:28:59.529Z,159.43
2022-12-25T01:31:27.443Z,159.17
2022-12-25T01:33:55.422Z,159.03
2022-12-25T01:36:24.863Z,159.03
2022-12-25T01:38:53.609Z,159.33
2022-12-25T01:41:25.576Z,159.17
2022-12-25T01:44:00.716Z,159.17
2022-12-25T01:46:28.800Z,159.07
2022-12-25T01:49:00.188Z,158.63
2022-12-25T01:51:31.098Z,159.03
2022-12-25T01:54:03.232Z,158.70
2022-12-25T01:56:34.257Z,158.33
2022-12-25T01:59:03.729Z,158.87
2022-12-25T02:01:31.797Z,159.30
2022-12-25T02:04:09.917Z,158.67
2022-12-25T02:06:37.799Z,158.97
2022-12-25T02:09:05.695Z,158.73
2022-12-25T02:12:04.262Z,158.90
2022-12-25T02:14:35.678Z,158.47
2022-12-25T02:17:12.525Z,159.17
2022-12-25T02:20:03.510Z,158.63
2022-12-25T02:22:40.705Z,159.43
2022-12-25T02:25:20.915Z,159.10
2022-12-25T02:28:09.154Z,158.43
2022-12-25T02:30:42.177Z,158.83
2022-12-25T02:33:38.082Z,159.40
2022-12-25T02:36:10.864Z,159.30
2022-12-25T02:39:02.135Z,158.93
2022-12-25T02:41:32.395Z,158.73
2022-12-25T02:44:21.530Z,158.80
2022-12-25T02:47:07.024Z,158.87
2022-12-25T02:49:54.121Z,158.60
2022-12-25T02:52:41.750Z,159.23
2022-12-25T02:55:31.160Z,159.33
2022-12-25T02:58:20.923Z,159.93
2022-12-25T03:01:13.735Z,159.13
2022-12-25T03:04:01.355Z,159.73
2022-12-25T03:06:46.306Z,159.20
2022-12-25T03:09:35.505Z,159.23
2022-12-25T03:12:09.603Z,159.73
2022-12-25T03:14:55.174Z,159.63
2022-12-25T03:17:25.249Z,158.90
2022-12-25T03:20:10.528Z,159.87
2022-12-25T03:22:56.032Z,160.23
2022-12-25T03:25:56.068Z,159.17
2022-12-25T03:28:25.537Z,158.90
2022-12-25T03:31:13.812Z,159.73
2022-12-25T03:34:46.371Z,158.50
2022-12-25T03:37:43.900Z,158.17
2022-12-25T03:40:36.073Z,159.37
2022-12-25T03:43:40.103Z,159.43
2022-12-25T03:46:31.561Z,158.20
2022-12-25T03:49:24.883Z,158.70
2022-12-25T03:52:13.982Z,159.13
2022-12-25T03:55:01.467Z,158.87
2022-12-25T03:57:47.029Z,158.60
2022-12-25T04:00:33.435Z,159.93
2022-12-25T04:03:18.894Z,158.83
2022-12-25T04:06:04.093Z,159.33
2022-12-25T04:08:50.925Z,159.00
2022-12-25T04:11:36.527Z,159.53
2022-12-25T04:14:21.958Z,158.83
2022-12-25T04:17:07.402Z,158.50
2022-12-25T04:19:52.992Z,158.50
2022-12-25T04:22:38.487Z,158.97
2022-12-25T04:25:26.147Z,158.83
2022-12-25T04:28:11.549Z,159.10
2022-12-25T04:30:57.119Z,158.67
2022-12-25T04:33:42.547Z,158.47
2022-12-25T04:36:10.439Z,159.17
2022-12-25T04:38:39.741Z,159.13
2022-12-25T04:41:10.317Z,158.63
2022-12-25T04:43:38.168Z,158.87
2022-12-25T04:46:06.994Z,158.80
2022-12-25T04:48:36.678Z,158.30
2022-12-25T04:51:15.540Z,159.83
2022-12-25T04:53:43.697Z,158.57
2022-12-25T04:56:13.118Z,159.50
2022-12-25T04:58:41.051Z,159.50
2022-12-25T05:01:09.164Z,159.57
2022-12-25T05:03:37.830Z,159.57
2022-12-25T05:06:07.030Z,159.30
2022-12-25T05:08:36.082Z,160.17
2022-12-25T05:11:07.359Z,160.20
2022-12-25T05:13:36.757Z,159.50
2022-12-25T05:16:07.251Z,159.77
2022-12-25T05:18:35.271Z,159.73
2022-12-25T05:21:03.957Z,160.03
2022-12-25T05:23:32.207Z,160.17
2022-12-25T05:26:00.189Z,159.57
2022-12-25T05:28:28.054Z,160.10
2022-12-25T05:30:58.921Z,160.03
2022-12-25T05:33:26.819Z,160.67
2022-12-25T05:35:54.696Z,160.90
2022-12-25T05:38:22.569Z,160.47
2022-12-25T05:40:52.852Z,160.07
2022-12-25T05:43:20.689Z,159.43
2022-12-25T05:45:48.546Z,158.97
2022-12-25T05:48:17.750Z,158.33
2022-12-25T05:50:45.727Z,157.97
2022-12-25T05:53:14.826Z,157.57
2022-12-25T05:55:43.921Z,157.67
2022-12-25T05:58:13.721Z,157.27
2022-12-25T06:00:44.707Z,158.50
2022-12-25T06:03:12.598Z,157.27
2022-12-25T06:05:41.879Z,157.60
2022-12-25T06:08:09.684Z,157.10
2022-12-25T06:10:37.611Z,156.93
2022-12-25T06:13:05.488Z,156.80
2022-12-25T06:15:33.653Z,157.10
2022-12-25T06:18:02.097Z,157.67
2022-12-25T06:20:30.143Z,156.53
2022-12-25T06:22:59.323Z,156.83
2022-12-25T06:25:27.151Z,156.60
2022-12-25T06:27:54.971Z,157.07
2022-12-25T06:30:22.862Z,156.83
2022-12-25T06:32:50.735Z,156.70
2022-12-25T06:35:18.737Z,157.47
2022-12-25T06:37:46.720Z,156.30
2022-12-25T06:40:16.109Z,156.00
2022-12-25T06:42:44.010Z,155.67
2022-12-25T06:45:12.480Z,156.67
2022-12-25T06:47:40.317Z,155.87
2022-12-25T06:50:09.029Z,156.30
2022-12-25T06:52:36.839Z,156.83
2022-12-25T06:55:04.956Z,156.93
2022-12-25T06:57:34.172Z,156.63
2022-12-25T07:00:02.001Z,156.33
2022-12-25T07:02:30.160Z,155.87
2022-12-25T07:04:58.569Z,155.30
2022-12-25T07:07:26.391Z,156.63
2022-12-25T07:09:54.178Z,155.40
2022-12-25T07:12:24.184Z,156.73
2022-12-25T07:14:55.400Z,156.37
2022-12-25T07:17:24.103Z,155.73
2022-12-25T07:19:52.395Z,155.63
2022-12-25T07:22:20.255Z,156.03
2022-12-25T07:24:48.125Z,155.73
2022-12-25T07:27:15.968Z,155.60
2022-12-25T07:29:43.827Z,155.90
2022-12-25T07:32:13.660Z,156.23
2022-12-25T07:34:41.525Z,155.73
2022-12-25T07:37:09.396Z,156.10
2022-12-25T07:39:37.263Z,155.50
2022-12-25T07:42:05.665Z,156.03
2022-12-25T07:44:33.471Z,155.40
2022-12-25T07:47:01.364Z,156.17
2022-12-25T07:49:30.528Z,155.47
2022-12-25T07:51:58.358Z,156.73
2022-12-25T07:54:26.159Z,155.93
2022-12-25T07:56:54.238Z,155.70
2022-12-25T07:59:22.298Z,156.50
2022-12-25T08:01:50.792Z,156.07
2022-12-25T08:04:18.918Z,155.67
2022-12-25T08:06:48.126Z,156.07
2022-12-25T08:09:15.974Z,156.17
2022-12-25T08:11:46.499Z,155.47
2022-12-25T08:14:15.025Z,155.93
2022-12-25T08:16:42.914Z,156.20
2022-12-25T08:19:11.201Z,156.00
2022-12-25T08:21:39.259Z,155.43
2022-12-25T08:24:08.832Z,156.47
2022-12-25T08:26:36.624Z,155.73
2022-12-25T08:29:04.876Z,156.17
2022-12-25T08:31:36.392Z,156.70
2022-12-25T08:34:06.928Z,156.70
2022-12-25T08:36:34.906Z,155.63
2022-12-25T08:39:03.552Z,156.47
2022-12-25T08:41:32.926Z,156.33
2022-12-25T08:44:00.757Z,156.57
2022-12-25T08:46:28.741Z,157.30
2022-12-25T08:48:57.310Z,157.00
2022-12-25T08:51:26.479Z,156.03
2022-12-25T08:53:59.110Z,156.07
2022-12-25T08:56:27.526Z,156.63
2022-12-25T08:58:56.676Z,156.93
2022-12-25T09:01:24.679Z,157.03
2022-12-25T09:03:52.626Z,156.00
2022-12-25T09:06:20.499Z,155.07
2022-12-25T09:08:49.852Z,156.77
2022-12-25T09:11:19.204Z,155.53
2022-12-25T09:13:47.142Z,156.13
2022-12-25T09:16:18.793Z,155.87
2022-12-25T09:18:46.915Z,154.80
2022-12-25T09:21:16.793Z,156.67
2022-12-25T09:23:44.850Z,156.00
2022-12-25T09:26:14.656Z,156.47
2022-12-25T09:28:48.750Z,155.93
2022-12-25T09:31:20.915Z,155.97
2022-12-25T09:33:49.403Z,156.57
2022-12-25T09:36:17.280Z,155.40
2022-12-25T09:38:45.105Z,156.27
2022-12-25T09:41:19.054Z,156.07
2022-12-25T09:43:50.952Z,156.30
2022-12-25T09:46:24.228Z,156.33
2022-12-25T09:49:02.451Z,156.13
2022-12-25T09:51:34.802Z,155.70
2022-12-25T09:54:07.527Z,155.73
2022-12-25T09:56:35.544Z,156.40
2022-12-25T09:59:03.424Z,156.67
2022-12-25T10:01:39.165Z,156.10
2022-12-25T10:04:23.737Z,156.60
2022-12-25T10:07:02.590Z,158.03
2022-12-25T10:09:48.297Z,158.47
2022-12-25T10:12:28.143Z,161.27
2022-12-25T10:15:07.627Z,162.50
2022-12-25T10:17:52.631Z,163.13
2022-12-25T10:20:34.521Z,164.13
2022-12-25T10:23:04.833Z,164.37
2022-12-25T10:25:33.490Z,164.67
2022-12-25T10:28:05.098Z,165.47
2022-12-25T10:30:33.002Z,167.37
2022-12-25T10:33:04.822Z,167.13
2022-12-25T10:35:32.791Z,168.37
2022-12-25T10:38:03.451Z,168.13
2022-12-25T10:40:39.668Z,168.27
2022-12-25T10:43:12.258Z,168.70
2022-12-25T10:45:48.152Z,169.03
2022-12-25T10:48:23.562Z,168.77
2022-12-25T10:50:51.724Z,169.83
2022-12-25T10:53:22.575Z,169.77
2022-12-25T10:56:01.878Z,168.77
2022-12-25T10:58:31.699Z,169.47
2022-12-25T11:01:03.022Z,169.20
2022-12-25T11:03:34.670Z,169.43
2022-12-25T11:06:03.418Z,168.83
2022-12-25T11:08:34.655Z,169.50
2022-12-25T11:11:06.173Z,169.40
2022-12-25T11:13:36.942Z,170.60
2022-12-25T11:16:10.764Z,170.03
2022-12-25T11:18:48.752Z,169.93
2022-12-25T11:21:19.438Z,169.97
2022-12-25T11:23:49.590Z,171.77
2022-12-25T11:26:19.107Z,170.27
2022-12-25T11:28:51.945Z,170.33
2022-12-25T11:31:22.088Z,170.93
2022-12-25T11:33:56.002Z,170.20
2022-12-25T11:36:31.102Z,170.33
2022-12-25T11:39:01.978Z,171.17
2022-12-25T11:41:34.707Z,170.20
2022-12-25T11:44:05.872Z,171.50
2022-12-25T11:46:42.416Z,170.33
2022-12-25T11:49:17.829Z,170.73
2022-12-25T11:51:48.541Z,170.70
2022-12-25T11:54:21.937Z,170.73
2022-12-25T11:56:50.554Z,170.03
2022-12-25T11:59:23.963Z,169.77
2022-12-25T12:01:56.118Z,170.07
2022-12-25T12:04:32.718Z,170.37
2022-12-25T12:07:09.840Z,169.60
2022-12-25T12:09:45.739Z,169.80
2022-12-25T12:12:21.346Z,169.50
2022-12-25T12:14:52.689Z,169.33
2022-12-25T12:17:21.105Z,170.50
2022-12-25T12:19:52.541Z,170.07
2022-12-25T12:22:24.132Z,169.43
2022-12-25T12:24:57.138Z,168.53
2022-12-25T12:27:31.195Z,170.20
2022-12-25T12:30:00.673Z,168.10
2022-12-25T12:32:38.712Z,169.60
2022-12-25T12:35:11.104Z,170.97
2022-12-25T12:37:41.534Z,170.30
2022-12-25T12:40:28.285Z,169.67
2022-12-25T12:42:56.308Z,171.10
2022-12-25T12:45:29.298Z,171.57
2022-12-25T12:47:57.850Z,170.80
2022-12-25T12:50:39.903Z,170.30
2022-12-25T12:53:27.622Z,170.77
2022-12-25T12:55:55.457Z,171.00
2022-12-25T12:58:32.915Z,170.83
2022-12-25T13:01:11.515Z,171.73
2022-12-25T13:04:21.064Z,171.40
2022-12-25T13:06:57.950Z,170.07
2022-12-25T13:09:38.444Z,170.87
2022-12-25T13:12:08.300Z,171.23
2022-12-25T13:14:37.762Z,171.10
2022-12-25T13:17:08.641Z,170.77
2022-12-25T13:19:37.620Z,172.10
2022-12-25T13:22:07.500Z,171.33
2022-12-25T13:24:37.498Z,171.50
2022-12-25T13:27:22.803Z,171.73
2022-12-25T13:29:50.654Z,170.17
2022-12-25T13:32:22.841Z,170.57
2022-12-25T13:34:52.094Z,171.43
2022-12-25T13:37:23.695Z,170.43
2022-12-25T13:39:55.363Z,170.43
2022-12-25T13:42:24.185Z,171.03
2022-12-25T13:44:55.527Z,171.17
2022-12-25T13:47:26.172Z,171.43
2022-12-25T13:49:56.074Z,170.67
2022-12-25T13:52:33.433Z,171.23
2022-12-25T13:55:02.607Z,171.50
2022-12-25T13:57:34.625Z,171.00
2022-12-25T14:00:03.296Z,170.77
2022-12-25T14:02:36.689Z,172.13
2022-12-25T14:05:05.448Z,171.57
2022-12-25T14:07:35.154Z,170.67
2022-12-25T14:10:04.244Z,171.13
2022-12-25T14:12:33.424Z,171.33
2022-12-25T14:15:01.918Z,171.67
2022-12-25T14:17:29.898Z,172.00
2022-12-25T14:20:05.741Z,171.70
2022-12-25T14:22:38.472Z,171.50
2022-12-25T14:25:15.849Z,171.93
2022-12-25T14:27:50.275Z,171.67
2022-12-25T14:30:19.266Z,171.60
2022-12-25T14:32:51.651Z,171.77
2022-12-25T14:35:23.585Z,171.97
2022-12-25T14:37:59.855Z,171.33
2022-12-25T14:40:30.624Z,170.73
2022-12-25T14:42:59.986Z,171.20
2022-12-25T14:45:31.342Z,173.10
2022-12-25T14:48:02.770Z,171.97
2022-12-25T14:50:34.215Z,172.10
2022-12-25T14:53:03.789Z,171.63
2022-12-25T14:55:31.969Z,172.07
2022-12-25T14:58:04.328Z,171.93
2022-12-25T15:00:35.659Z,171.73
2022-12-25T15:03:06.945Z,171.97
2022-12-25T15:05:37.140Z,171.33
2022-12-25T15:11:02.643Z,171.40
2022-12-25T15:13:31.968Z,171.70
2022-12-25T15:16:07.212Z,172.23
2022-12-25T15:18:39.029Z,172.23
2022-12-25T15:21:07.819Z,171.63
2022-12-25T15:23:35.716Z,171.40
2022-12-25T15:26:05.147Z,170.93
2022-12-25T15:28:33.628Z,171.90
2022-12-25T15:31:01.464Z,171.97
2022-12-25T15:33:29.414Z,171.47
2022-12-25T15:35:57.231Z,171.77
2022-12-25T15:38:25.045Z,171.93
2022-12-25T15:40:52.937Z,172.30
2022-12-25T15:43:40.070Z,171.80
2022-12-25T15:46:10.235Z,172.07
2022-12-25T15:48:38.093Z,172.03
2022-12-25T15:51:06.222Z,172.10
2022-12-25T15:53:34.030Z,171.90
2022-12-25T15:56:01.864Z,171.03
2022-12-25T15:58:31.039Z,172.37
2022-12-25T16:00:58.847Z,172.50
2022-12-25T16:03:26.898Z,171.90
2022-12-25T16:05:54.840Z,171.70
2022-12-25T16:08:22.754Z,173.03
2022-12-25T16:10:50.632Z,172.40
2022-12-25T16:13:18.442Z,172.03
2022-12-25T16:15:47.668Z,172.37
2022-12-25T16:18:15.518Z,171.67
2022-12-25T16:20:43.357Z,172.63
2022-12-25T16:23:11.168Z,171.53
2022-12-25T16:25:39.054Z,171.93
2022-12-25T16:28:09.543Z,171.77
2022-12-25T16:30:38.181Z,171.97
2022-12-25T16:33:08.068Z,172.03
2022-12-25T16:35:35.920Z,172.03
2022-12-25T16:38:04.388Z,172.63
2022-12-25T16:40:32.915Z,172.17
2022-12-25T16:43:01.800Z,172.30
2022-12-25T16:45:29.644Z,172.83
2022-12-25T16:47:58.131Z,172.13
2022-12-25T16:50:27.296Z,171.47
2022-12-25T16:52:55.128Z,172.47
2022-12-25T16:55:29.363Z,172.40
2022-12-25T16:57:58.163Z,171.77
2022-12-25T17:00:26.388Z,171.33
2022-12-25T17:02:56.789Z,173.07
2022-12-25T17:05:25.194Z,171.83
2022-12-25T17:07:54.472Z,171.63
2022-12-25T17:10:22.590Z,172.57
2022-12-25T17:12:50.432Z,172.13
2022-12-25T17:15:18.452Z,171.97
2022-12-25T17:17:46.278Z,171.93
2022-12-25T17:20:14.126Z,171.57
2022-12-25T17:22:41.919Z,172.30
2022-12-25T17:25:11.316Z,172.43
2022-12-25T17:27:39.127Z,172.93
2022-12-25T17:30:09.022Z,172.00
2022-12-25T17:32:36.839Z,172.53
2022-12-25T17:35:05.031Z,172.90
2022-12-25T17:37:34.803Z,171.10
2022-12-25T17:40:02.635Z,168.60
2022-12-25T17:42:31.808Z,165.57
2022-12-25T17:44:59.632Z,165.13
2022-12-25T17:47:27.457Z,163.90
2022-12-25T17:49:55.314Z,163.73
2022-12-25T17:52:23.224Z,162.83
2022-12-25T17:54:51.104Z,162.30
2022-12-25T17:57:18.962Z,162.07
2022-12-25T17:59:48.115Z,162.67
2022-12-25T18:02:16.027Z,161.93
2022-12-25T18:04:43.929Z,160.90
2022-12-25T18:07:11.738Z,161.07
2022-12-25T18:09:39.732Z,160.97
2022-12-25T18:12:07.930Z,160.97
2022-12-25T18:14:36.446Z,161.60
2022-12-25T18:17:05.669Z,160.77
2022-12-25T18:19:34.160Z,160.73
2022-12-25T18:22:01.976Z,161.03
2022-12-25T18:24:29.812Z,160.73
2022-12-25T18:26:57.650Z,160.97
2022-12-25T18:29:25.485Z,160.10
2022-12-25T18:31:54.791Z,160.93
2022-12-25T18:34:24.209Z,159.93
2022-12-25T18:36:52.037Z,160.47
2022-12-25T18:39:19.921Z,160.80
2022-12-25T18:42:01.700Z,160.63
2022-12-25T18:44:31.001Z,160.27
2022-12-25T18:47:00.031Z,159.60
2022-12-25T18:49:29.193Z,159.90
2022-12-25T18:52:48.591Z,160.73
2022-12-25T18:54:45.016Z,159.33
2022-12-25T18:57:12.871Z,160.37
2022-12-25T18:59:41.805Z,159.80
2022-12-25T19:02:11.931Z,159.60
2022-12-25T19:04:43.362Z,160.37
2022-12-25T19:07:11.571Z,159.63
2022-12-25T19:09:39.443Z,159.50
2022-12-25T19:12:07.760Z,159.33
2022-12-25T19:14:47.254Z,159.10
2022-12-25T19:17:15.700Z,159.03
2022-12-25T19:19:45.286Z,159.63
2022-12-25T19:22:15.966Z,159.43
2022-12-25T19:24:43.955Z,160.10
2022-12-25T19:27:11.898Z,159.83
2022-12-25T19:29:39.696Z,160.10
2022-12-25T19:32:07.652Z,159.37
2022-12-25T19:34:35.690Z,159.63
2022-12-25T19:37:04.938Z,159.63
2022-12-25T19:39:32.789Z,160.37
2022-12-25T19:42:02.699Z,159.80
2022-12-25T19:44:31.184Z,160.43
2022-12-25T19:46:58.994Z,159.70
2022-12-25T19:49:26.993Z,159.70
2022-12-25T19:51:55.340Z,159.97
2022-12-25T19:54:24.519Z,160.17
2022-12-25T19:56:52.347Z,160.07
2022-12-25T19:59:20.143Z,160.10
2022-12-25T20:01:48.274Z,160.33
2022-12-25T20:04:17.964Z,159.57
2022-12-25T20:06:45.966Z,160.13
2022-12-25T20:09:17.924Z,160.67
2022-12-25T20:11:50.190Z,160.27
2022-12-25T20:14:19.348Z,160.17
2022-12-25T20:16:47.266Z,160.60
2022-12-25T20:19:15.679Z,160.50
2022-12-25T20:21:43.580Z,160.23
2022-12-25T20:24:11.479Z,159.97
2022-12-25T20:26:40.229Z,160.53
2022-12-25T20:29:09.420Z,160.30
2022-12-25T20:31:37.586Z,159.90
2022-12-25T20:34:08.198Z,160.20
2022-12-25T20:36:37.735Z,160.47
2022-12-25T20:39:09.148Z,159.93
2022-12-25T20:41:37.626Z,160.23
2022-12-25T20:44:06.504Z,160.50
2022-12-25T20:46:35.795Z,159.80
2022-12-25T20:49:03.809Z,160.07
2022-12-25T20:51:31.677Z,159.97
2022-12-25T20:53:59.539Z,160.27
2022-12-25T20:56:28.898Z,159.30
2022-12-25T20:58:57.358Z,159.47
2022-12-25T21:01:25.543Z,160.03
2022-12-25T21:03:55.453Z,160.43
2022-12-25T21:06:23.900Z,160.33
2022-12-25T21:08:51.809Z,160.03
2022-12-25T21:11:21.182Z,159.73
2022-12-25T21:13:49.523Z,159.67
2022-12-25T21:16:20.536Z,160.17
2022-12-25T21:18:49.279Z,159.83
2022-12-25T21:21:18.914Z,159.97
2022-12-25T21:23:47.391Z,160.43
2022-12-25T21:26:19.247Z,159.63
2022-12-25T21:28:47.592Z,160.17
2022-12-25T21:31:15.833Z,159.87
2022-12-25T21:33:52.178Z,160.13
2022-12-25T21:36:24.753Z,159.43
2022-12-25T21:38:57.288Z,160.30
2022-12-25T21:41:26.225Z,160.00
2022-12-25T21:43:54.992Z,160.63
2022-12-25T21:46:23.416Z,159.37
2022-12-25T21:48:51.363Z,160.17
2022-12-25T21:51:40.316Z,159.77
2022-12-25T21:54:09.005Z,160.13
2022-12-25T21:56:44.885Z,159.37
2022-12-25T21:59:15.166Z,159.77
2022-12-25T22:01:43.332Z,159.63
2022-12-25T22:04:12.264Z,159.77
2022-12-25T22:06:58.943Z,159.23
2022-12-25T22:09:27.241Z,159.63
2022-12-25T22:12:12.771Z,158.93
2022-12-25T22:14:54.824Z,159.70
2022-12-25T22:17:43.523Z,158.83
2022-12-25T22:20:14.711Z,159.50
2022-12-25T22:22:44.623Z,159.10
2022-12-25T22:25:13.310Z,159.73
2022-12-25T22:27:42.377Z,159.77
2022-12-25T22:30:12.550Z,160.17
2022-12-25T22:32:40.722Z,159.87
2022-12-25T22:35:09.811Z,159.37
2022-12-25T22:37:38.985Z,159.47
2022-12-25T22:40:09.895Z,159.80
2022-12-25T22:42:38.052Z,159.67
2022-12-25T22:45:06.866Z,160.10
2022-12-25T22:47:34.722Z,159.37
2022-12-25T22:50:02.549Z,159.33
2022-12-25T22:52:30.386Z,159.53
2022-12-25T22:54:58.243Z,159.90
2022-12-25T22:57:27.409Z,160.00
2022-12-25T22:59:55.304Z,160.07
2022-12-25T23:02:23.367Z,160.37
2022-12-25T23:04:51.552Z,159.97
2022-12-25T23:07:19.434Z,159.73
2022-12-25T23:09:47.424Z,159.37
2022-12-25T23:12:29.217Z,159.27
2022-12-25T23:14:58.535Z,159.50
2022-12-25T23:17:43.760Z,159.93
2022-12-25T23:20:32.604Z,160.03
2022-12-25T23:23:17.329Z,159.83
2022-12-25T23:26:02.716Z,158.97
2022-12-25T23:28:48.183Z,159.47
2022-12-25T23:31:17.509Z,159.50
2022-12-25T23:33:45.423Z,159.97
2022-12-25T23:36:13.277Z,159.27
2022-12-25T23:38:41.086Z,159.50
2022-12-25T23:41:08.978Z,159.13
2022-12-25T23:43:36.882Z,159.97
2022-12-25T23:46:04.847Z,159.57
2022-12-25T23:48:34.149Z,159.33
2022-12-25T23:51:04.190Z,159.17
2022-12-25T23:53:32.159Z,159.37
2022-12-25T23:56:00.090Z,159.50
2022-12-25T23:58:29.509Z,159.30
